createdAt,value
2019-05-13T00:01:28.740Z,102976.15
2019-05-13T00:06:34.378Z,102976.34
2019-05-13T00:11:37.475Z,102978.47
2019-05-13T00:16:41.095Z,102967.38
2019-05-13T00:21:44.648Z,102976.15
2019-05-13T00:26:48.082Z,102982.11
2019-05-13T00:31:53.867Z,102974.19
2019-05-13T00:37:07.880Z,102980.51
2019-05-13T00:42:04.060Z,102986.05
2019-05-13T00:47:07.647Z,102988.02
2019-05-13T00:52:14.398Z,102986.37
2019-05-13T00:57:18.094Z,102983.61
2019-05-13T01:02:21.524Z,102987.97
2019-05-13T01:07:28.747Z,102982.05
2019-05-13T01:12:30.163Z,102976.95
2019-05-13T01:17:34.096Z,102982.42
2019-05-13T01:22:37.623Z,102981.45
2019-05-13T01:27:44.424Z,102979.62
2019-05-13T01:32:48.000Z,102981.80
2019-05-13T01:37:53.676Z,102981.64
2019-05-13T01:42:56.564Z,102977.83
2019-05-13T01:47:59.980Z,102983.67
2019-05-13T01:53:04.470Z,102984.02
2019-05-13T01:58:08.127Z,102985.38
2019-05-13T02:03:14.139Z,102982.50
2019-05-13T02:08:16.706Z,102987.77
2019-05-13T02:13:20.187Z,102990.38
2019-05-13T02:18:24.626Z,102986.45
2019-05-13T02:23:28.244Z,102977.97
2019-05-13T02:28:33.438Z,102990.03
2019-05-13T02:33:37.039Z,103004.70
2019-05-13T02:38:42.732Z,103005.63
2019-05-13T02:43:45.802Z,103011.17
2019-05-13T02:48:52.521Z,103007.77
2019-05-13T02:53:54.408Z,103003.30
2019-05-13T02:58:57.840Z,103011.17
2019-05-13T03:04:03.104Z,103013.17
2019-05-13T03:09:07.609Z,103020.63
2019-05-13T03:14:12.747Z,103022.64
2019-05-13T03:19:16.199Z,103024.34
2019-05-13T03:24:22.781Z,103024.98
2019-05-13T03:29:24.786Z,103020.94
2019-05-13T03:34:28.209Z,103026.08
2019-05-13T03:39:33.415Z,103042.61
2019-05-13T03:44:38.706Z,103049.65
2019-05-13T03:49:44.506Z,103051.92
2019-05-13T03:54:48.386Z,103055.09
2019-05-13T03:59:52.772Z,103059.92
2019-05-13T04:04:58.993Z,103056.86
2019-05-13T04:10:03.261Z,103060.13
2019-05-13T04:15:08.032Z,103061.52
2019-05-13T04:20:12.560Z,103061.83
2019-05-13T04:25:16.359Z,103058.59
2019-05-13T04:30:22.996Z,103064.00
2019-05-13T04:35:28.384Z,103066.95
2019-05-13T04:40:33.186Z,103073.08
2019-05-13T04:45:36.924Z,103076.52
2019-05-13T04:50:43.143Z,103073.25
2019-05-13T04:55:45.681Z,103085.77
2019-05-13T05:01:15.887Z,103087.10
2019-05-13T05:06:22.890Z,103092.17
2019-05-13T05:11:44.054Z,103089.95
2019-05-13T05:16:52.284Z,103092.50
2019-05-13T05:22:16.918Z,103085.81
2019-05-13T05:27:35.452Z,103096.72
2019-05-13T05:32:44.864Z,103104.91
2019-05-13T05:38:07.794Z,103121.65
2019-05-13T05:43:12.566Z,103116.89
2019-05-13T05:48:17.693Z,103122.64
2019-05-13T05:53:24.919Z,103120.56
2019-05-13T05:58:31.582Z,103125.14
2019-05-13T06:03:38.339Z,103119.90
2019-05-13T06:08:42.311Z,103113.70
2019-05-13T06:13:45.881Z,103111.09
2019-05-13T06:18:49.755Z,103109.42
2019-05-13T06:23:55.642Z,103109.83
2019-05-13T06:28:59.233Z,103107.86
2019-05-13T06:34:02.735Z,103100.82
2019-05-13T06:39:09.003Z,103103.60
2019-05-13T06:44:12.592Z,103111.70
2019-05-13T06:49:16.025Z,103108.66
2019-05-13T06:54:21.751Z,103111.00
2019-05-13T06:59:24.672Z,103109.22
2019-05-13T07:04:28.362Z,103098.70
2019-05-13T07:09:32.517Z,103106.52
2019-05-13T07:14:36.312Z,103111.02
2019-05-13T07:19:41.508Z,103102.37
2019-05-13T07:24:44.884Z,103104.29
2019-05-13T07:29:53.597Z,103099.59
2019-05-13T07:34:56.365Z,103102.33
2019-05-13T07:40:02.355Z,103099.65
2019-05-13T07:45:06.516Z,103098.26
2019-05-13T07:50:12.695Z,103101.94
2019-05-13T07:55:15.810Z,103099.33
2019-05-13T08:00:21.731Z,103099.22
2019-05-13T08:05:25.404Z,103092.92
2019-05-13T08:10:28.892Z,103090.30
2019-05-13T08:15:32.322Z,103082.45
2019-05-13T08:20:35.747Z,103081.19
2019-05-13T08:25:39.178Z,103093.63
2019-05-13T08:30:43.072Z,103087.42
2019-05-13T08:35:47.215Z,103085.80
2019-05-13T08:40:51.802Z,103091.77
2019-05-13T08:45:58.510Z,103081.37
2019-05-13T08:51:03.221Z,103084.17
2019-05-13T08:56:06.975Z,103085.96
2019-05-13T09:01:12.404Z,103078.31
2019-05-13T09:06:15.627Z,103083.02
2019-05-13T09:11:19.143Z,103080.02
2019-05-13T09:16:22.561Z,103080.32
2019-05-13T09:21:26.057Z,103077.34
2019-05-13T09:26:31.598Z,103074.30
2019-05-13T09:31:34.886Z,103073.42
2019-05-13T09:36:38.342Z,103072.57
2019-05-13T09:41:45.452Z,103069.40
2019-05-13T09:46:51.482Z,103070.36
2019-05-13T09:51:54.027Z,103076.77
2019-05-13T09:56:57.471Z,103067.73
2019-05-13T10:02:03.171Z,103064.51
2019-05-13T10:07:07.082Z,103069.84
2019-05-13T10:12:12.163Z,103062.23
2019-05-13T10:17:15.895Z,103061.41
2019-05-13T10:22:21.333Z,103056.71
2019-05-13T10:27:26.064Z,103051.97
2019-05-13T10:32:32.236Z,103049.64
2019-05-13T10:37:34.963Z,103052.31
2019-05-13T10:42:38.475Z,103041.73
2019-05-13T10:47:42.447Z,103039.98
2019-05-13T10:52:45.916Z,103037.89
2019-05-13T10:57:51.338Z,103030.58
2019-05-13T11:02:54.932Z,103029.72
2019-05-13T11:07:58.636Z,103022.32
2019-05-13T11:13:06.050Z,103022.32
2019-05-13T11:18:11.762Z,103009.37
2019-05-13T11:23:12.755Z,103007.62
2019-05-13T11:28:16.188Z,103004.00
2019-05-13T11:33:22.371Z,103008.53
2019-05-13T11:38:27.517Z,103002.02
2019-05-13T11:43:33.132Z,102994.75
2019-05-13T11:48:36.220Z,102999.06
2019-05-13T11:53:41.657Z,102986.36
2019-05-13T11:58:45.349Z,102985.02
2019-05-13T12:03:48.770Z,102978.34
2019-05-13T12:08:55.202Z,102966.48
2019-05-13T12:13:57.486Z,102963.05
2019-05-13T12:19:03.455Z,102950.64
2019-05-13T12:24:10.334Z,102944.90
2019-05-13T12:29:18.534Z,102947.58
2019-05-13T12:34:16.915Z,102931.06
2019-05-13T12:39:23.891Z,102936.50
2019-05-13T12:44:25.659Z,102944.31
2019-05-13T12:49:33.631Z,102924.26
2019-05-13T12:54:37.429Z,102920.33
2019-05-13T12:59:53.819Z,102921.05
2019-05-13T13:05:10.560Z,102907.17
2019-05-13T13:10:28.021Z,102905.11
2019-05-13T13:15:41.931Z,102900.05
2019-05-13T13:21:00.282Z,102894.21
2019-05-13T13:26:03.061Z,102898.30
2019-05-13T13:31:08.715Z,102888.47
2019-05-13T13:36:15.621Z,102885.75
2019-05-13T13:41:24.822Z,102877.45
2019-05-13T13:46:41.277Z,102871.01
2019-05-13T13:51:34.570Z,102866.45
2019-05-13T13:56:38.111Z,102869.45
2019-05-13T14:01:41.759Z,102858.64
2019-05-13T14:11:51.553Z,102864.42
2019-05-13T14:16:55.323Z,102855.66
2019-05-13T14:21:58.724Z,102862.44
2019-05-13T14:27:03.104Z,102845.74
2019-05-13T14:32:06.755Z,102832.16
2019-05-13T14:37:11.663Z,102837.89
2019-05-13T14:42:15.646Z,102828.37
2019-05-13T14:47:19.105Z,102817.83
2019-05-13T14:52:24.273Z,102809.98
2019-05-13T14:57:32.273Z,102806.45
2019-05-13T15:02:37.444Z,102808.20
2019-05-13T15:07:42.119Z,102814.16
2019-05-13T15:12:47.489Z,102803.33
2019-05-13T15:17:53.840Z,102806.70
2019-05-13T15:22:57.417Z,102808.92
2019-05-13T15:28:02.929Z,102801.64
2019-05-13T15:33:06.176Z,102792.87
2019-05-13T15:38:12.316Z,102795.20
2019-05-13T15:43:14.847Z,102788.12
2019-05-13T15:48:22.240Z,102786.97
2019-05-13T15:53:26.132Z,102775.55
2019-05-13T15:58:39.013Z,102774.42
2019-05-13T16:03:36.496Z,102776.34
2019-05-13T16:08:43.089Z,102776.80
2019-05-13T16:13:45.200Z,102777.79
2019-05-13T16:18:48.625Z,102775.53
2019-05-13T16:23:52.246Z,102769.69
2019-05-13T16:28:55.972Z,102774.12
2019-05-13T16:34:01.555Z,102763.31
2019-05-13T16:39:06.679Z,102760.21
2019-05-13T16:44:11.972Z,102763.95
2019-05-13T16:49:15.703Z,102766.92
2019-05-13T16:54:21.787Z,102746.00
2019-05-13T16:59:24.374Z,102746.00
2019-05-13T17:04:27.826Z,102765.91
2019-05-13T17:09:32.319Z,102763.64
2019-05-13T17:14:36.003Z,102761.39
2019-05-13T17:19:39.423Z,102754.45
2019-05-13T17:24:43.639Z,102756.33
2019-05-13T17:29:47.151Z,102760.08
2019-05-13T17:34:51.558Z,102759.80
2019-05-13T17:39:55.116Z,102758.61
2019-05-13T17:44:58.547Z,102759.19
2019-05-13T17:50:02.202Z,102751.03
2019-05-13T17:55:07.524Z,102751.95
2019-05-13T18:00:13.031Z,102751.17
2019-05-13T18:05:18.224Z,102762.12
2019-05-13T18:10:22.574Z,102751.16
2019-05-13T18:15:26.175Z,102751.18
2019-05-13T18:20:29.605Z,102749.02
2019-05-13T18:25:33.043Z,102741.11
2019-05-13T18:30:36.478Z,102754.25
2019-05-13T18:35:41.884Z,102755.55
2019-05-13T18:40:45.060Z,102757.74
2019-05-13T18:45:48.465Z,102765.16
2019-05-13T18:50:52.445Z,102766.39
2019-05-13T18:55:56.004Z,102771.14
2019-05-13T19:01:01.329Z,102776.78
2019-05-13T19:06:05.085Z,102774.00
2019-05-13T19:11:08.579Z,102778.81
2019-05-13T19:16:12.082Z,102782.20
2019-05-13T19:21:15.529Z,102781.67
2019-05-13T19:26:18.953Z,102790.81
2019-05-13T19:31:22.384Z,102799.37
2019-05-13T19:36:25.816Z,102802.91
2019-05-13T19:41:31.390Z,102805.06
2019-05-13T19:46:34.410Z,102804.82
2019-05-13T19:51:37.871Z,102803.88
2019-05-13T19:56:41.334Z,102806.68
2019-05-13T20:01:44.751Z,102805.23
2019-05-13T20:06:48.213Z,102803.42
2019-05-13T20:11:55.343Z,102803.72
2019-05-13T20:16:57.728Z,102811.12
2019-05-13T20:22:02.370Z,102813.66
2019-05-13T20:27:06.068Z,102816.59
2019-05-13T20:32:11.634Z,102819.52
2019-05-13T20:37:15.103Z,102819.91
2019-05-13T20:42:20.301Z,102822.61
2019-05-13T20:47:23.783Z,102821.85
2019-05-13T20:52:27.218Z,102830.12
2019-05-13T20:57:32.358Z,102830.02
2019-05-13T21:02:35.994Z,102834.59
2019-05-13T21:07:41.720Z,102846.48
2019-05-13T21:12:44.647Z,102851.79
2019-05-13T21:17:48.195Z,102851.39
2019-05-13T21:22:51.781Z,102841.42
2019-05-13T21:27:55.135Z,102843.58
2019-05-13T21:32:58.660Z,102844.09
2019-05-13T21:38:02.126Z,102847.21
2019-05-13T21:43:05.574Z,102847.64
2019-05-13T21:48:10.976Z,102854.80
2019-05-13T21:53:14.169Z,102860.00
2019-05-13T21:58:17.601Z,102857.95
2019-05-13T22:03:21.078Z,102847.41
2019-05-13T22:08:24.515Z,102855.86
2019-05-13T22:13:31.542Z,102857.84
2019-05-13T22:18:35.234Z,102859.27
2019-05-13T22:23:38.629Z,102852.42
2019-05-13T22:28:42.042Z,102845.36
2019-05-13T22:33:45.483Z,102836.66
2019-05-13T22:38:48.919Z,102827.86
2019-05-13T22:43:58.377Z,102832.63
2019-05-13T22:48:58.139Z,102832.29
2019-05-13T22:54:01.593Z,102831.20
2019-05-13T22:59:05.113Z,102838.45
2019-05-13T23:04:08.602Z,102841.42
2019-05-13T23:09:12.610Z,102838.09
2019-05-13T23:14:16.080Z,102836.37
2019-05-13T23:19:21.534Z,102818.98
2019-05-13T23:24:24.630Z,102813.18
2019-05-13T23:29:28.072Z,102812.83
2019-05-13T23:34:31.967Z,102809.86
2019-05-13T23:39:35.618Z,102807.25
2019-05-13T23:44:41.210Z,102803.19
2019-05-13T23:49:44.215Z,102801.45
2019-05-13T23:54:47.627Z,102796.81
2019-05-13T23:59:51.266Z,102809.48
